Time;durP1;ratioP1;P1;durP2;ratioP2;P2;SDS_P1;SDS_P2;PMS_P1;PMS_P2;Temp;Humidity;BMP_temperature;BMP_pressure;BME280_temperature;BME280_humidity;BME280_pressure;Samples;Min_cycle;Max_cycle;Signal;HPM_P1;HPM_P2
2023/05/24 00:01:26;;;;;;;57.40;2.20;;;;;;;;;;5070320;28;20491;-69
2023/05/24 00:03:53;;;;;;;57.97;2.97;;;;;;;;;;5073448;28;20471;-69
2023/05/24 00:06:21;;;;;;;57.27;2.63;;;;;;;;;;5061617;28;20474;-69
2023/05/24 00:08:48;;;;;;;57.10;2.20;;;;;;;;;;5072873;28;20473;-69
2023/05/24 00:11:16;;;;;;;57.50;2.60;;;;;;;;;;5070086;28;20487;-69
2023/05/24 00:13:43;;;;;;;57.10;2.40;;;;;;;;;;5065221;28;20448;-69
2023/05/24 00:16:10;;;;;;;58.20;3.10;;;;;;;;;;5071041;28;20448;-69
2023/05/24 00:18:40;;;;;;;56.93;2.30;;;;;;;;;;5067817;28;20459;-69
2023/05/24 00:21:07;;;;;;;57.90;2.70;;;;;;;;;;5067180;28;20537;-69
2023/05/24 00:23:35;;;;;;;57.60;2.40;;;;;;;;;;5071611;28;20447;-69
2023/05/24 00:26:03;;;;;;;57.30;2.30;;;;;;;;;;5073362;28;20865;-69
2023/05/24 00:28:31;;;;;;;56.93;2.17;;;;;;;;;;5070602;28;20875;-69
2023/05/24 00:30:58;;;;;;;57.30;2.50;;;;;;;;;;5069182;28;20483;-69
2023/05/24 00:33:26;;;;;;;56.97;2.00;;;;;;;;;;5068879;28;20990;-69
2023/05/24 00:35:55;;;;;;;57.13;2.10;;;;;;;;;;5066200;28;20820;-69
2023/05/24 00:38:22;;;;;;;57.27;2.17;;;;;;;;;;5070592;28;20501;-69
2023/05/24 00:40:49;;;;;;;57.10;2.03;;;;;;;;;;5072215;28;20463;-69
2023/05/24 00:43:17;;;;;;;57.20;2.20;;;;;;;;;;5071474;28;20963;-69
2023/05/24 00:45:46;;;;;;;56.87;2.10;;;;;;;;;;5064991;28;20795;-69
2023/05/24 00:48:14;;;;;;;57.37;2.20;;;;;;;;;;5070683;28;20717;-69
2023/05/24 00:50:41;;;;;;;57.17;2.00;;;;;;;;;;5063324;28;20533;-69
2023/05/24 00:53:08;;;;;;;57.60;2.60;;;;;;;;;;5070640;28;20451;-69
2023/05/24 00:55:36;;;;;;;59.20;2.50;;;;;;;;;;5058893;28;20475;-69
2023/05/24 00:58:03;;;;;;;56.97;2.13;;;;;;;;;;5065215;28;20798;-69
2023/05/24 01:00:30;;;;;;;57.57;2.20;;;;;;;;;;5065383;28;20472;-69
2023/05/24 01:02:59;;;;;;;57.50;2.30;;;;;;;;;;5072398;28;20447;-69
2023/05/24 01:05:26;;;;;;;57.60;2.50;;;;;;;;;;5064761;28;20475;-69
2023/05/24 01:07:58;;;;;;;57.17;2.40;;;;;;;;;;5071610;28;20476;-69
2023/05/24 01:10:31;;;;;;;58.47;3.83;;;;;;;;;;5069801;28;20433;-69
2023/05/24 01:13:02;;;;;;;57.07;2.40;;;;;;;;;;5059983;28;20463;-69
2023/05/24 01:15:34;;;;;;;57.17;2.10;;;;;;;;;;5065060;28;20470;-69
2023/05/24 01:18:06;;;;;;;57.73;2.70;;;;;;;;;;5071145;28;20480;-69
2023/05/24 01:20:36;;;;;;;57.30;2.50;;;;;;;;;;5064012;28;20513;-69
2023/05/24 01:23:19;;;;;;;57.80;3.50;;;;;;;;;;5072056;28;20447;-69
2023/05/24 01:25:54;;;;;;;58.90;3.93;;;;;;;;;;5065322;28;20471;-69
2023/05/24 01:28:22;;;;;;;57.23;2.20;;;;;;;;;;5069467;28;20490;-69
2023/05/24 01:30:50;;;;;;;57.17;2.30;;;;;;;;;;5065258;28;20483;-69
2023/05/24 01:33:17;;;;;;;57.40;2.30;;;;;;;;;;5071757;28;20885;-68
2023/05/24 01:35:44;;;;;;;57.43;2.40;;;;;;;;;;5066373;28;20835;-69
2023/05/24 01:38:11;;;;;;;57.33;2.20;;;;;;;;;;5067976;28;20454;-68
2023/05/24 01:40:39;;;;;;;57.40;2.80;;;;;;;;;;5058920;28;20833;-69
2023/05/24 01:43:14;;;;;;;62.60;2.93;;;;;;;;;;5071728;28;20497;-69
2023/05/24 01:45:45;;;;;;;57.40;2.20;;;;;;;;;;5065798;28;20459;-69
2023/05/24 01:48:17;;;;;;;57.33;2.73;;;;;;;;;;5067778;28;20482;-69
2023/05/24 01:50:47;;;;;;;57.37;2.30;;;;;;;;;;5062443;28;20502;-69
2023/05/24 01:53:17;;;;;;;56.97;2.10;;;;;;;;;;5071458;28;20444;-69
2023/05/24 01:55:44;;;;;;;60.13;2.60;;;;;;;;;;5062288;28;20554;-69
2023/05/24 01:58:11;;;;;;;59.40;2.27;;;;;;;;;;5067235;28;20440;-69
2023/05/24 02:00:39;;;;;;;61.30;2.77;;;;;;;;;;5066082;28;20775;-68
2023/05/24 02:03:08;;;;;;;57.07;2.50;;;;;;;;;;5071364;28;20435;-69
2023/05/24 02:05:35;;;;;;;57.40;2.57;;;;;;;;;;5067532;28;20473;-69
2023/05/24 02:08:02;;;;;;;57.33;2.10;;;;;;;;;;5063162;28;20992;-69
2023/05/24 02:10:29;;;;;;;57.27;2.50;;;;;;;;;;5065679;28;20463;-69
2023/05/24 02:12:58;;;;;;;57.27;2.47;;;;;;;;;;5071042;28;20451;-68
2023/05/24 02:15:29;;;;;;;57.37;2.30;;;;;;;;;;5068752;28;20470;-69
2023/05/24 02:17:56;;;;;;;57.30;2.23;;;;;;;;;;5064767;28;20532;-68
2023/05/24 02:20:25;;;;;;;57.67;2.50;;;;;;;;;;5068247;28;20468;-68
2023/05/24 02:22:52;;;;;;;57.67;2.20;;;;;;;;;;5068982;28;20483;-68
2023/05/24 02:25:19;;;;;;;57.30;2.27;;;;;;;;;;5061386;28;20475;-68
2023/05/24 02:27:46;;;;;;;57.27;2.17;;;;;;;;;;5070835;28;20490;-69
2023/05/24 02:30:13;;;;;;;57.43;2.20;;;;;;;;;;5061709;28;20460;-69
2023/05/24 02:32:41;;;;;;;57.20;2.40;;;;;;;;;;5071137;28;20466;-69
2023/05/24 02:35:08;;;;;;;57.53;2.50;;;;;;;;;;5065321;28;20467;-69
2023/05/24 02:37:37;;;;;;;57.60;2.60;;;;;;;;;;5065832;28;20494;-69
2023/05/24 02:40:04;;;;;;;57.13;2.10;;;;;;;;;;5068020;28;20495;-69
2023/05/24 02:42:32;;;;;;;57.37;2.47;;;;;;;;;;5070950;28;20900;-69
2023/05/24 02:44:59;;;;;;;57.23;2.10;;;;;;;;;;5069293;28;20471;-69
2023/05/24 02:47:26;;;;;;;57.27;2.33;;;;;;;;;;5071061;28;20459;-68
2023/05/24 02:49:53;;;;;;;57.13;2.20;;;;;;;;;;5060731;28;20846;-69
2023/05/24 02:52:22;;;;;;;57.57;2.70;;;;;;;;;;5067915;28;21012;-69
2023/05/24 02:54:50;;;;;;;57.40;2.40;;;;;;;;;;5060286;28;20496;-68
2023/05/24 02:57:17;;;;;;;57.27;2.40;;;;;;;;;;5070368;28;20451;-69
2023/05/24 02:59:45;;;;;;;58.00;2.67;;;;;;;;;;5056208;28;20467;-69
2023/05/24 03:02:13;;;;;;;58.40;3.23;;;;;;;;;;5067874;28;21086;-69
2023/05/24 03:04:40;;;;;;;62.73;2.50;;;;;;;;;;5056808;28;20461;-69
2023/05/24 03:07:07;;;;;;;57.33;2.37;;;;;;;;;;5069477;28;20474;-69
2023/05/24 03:09:35;;;;;;;57.47;2.60;;;;;;;;;;5062281;28;20484;-69
2023/05/24 03:12:03;;;;;;;57.17;2.40;;;;;;;;;;5070707;28;20513;-69
2023/05/24 03:14:30;;;;;;;57.40;2.40;;;;;;;;;;5064010;28;20480;-69
2023/05/24 03:16:57;;;;;;;57.70;2.60;;;;;;;;;;5069739;28;20455;-69
2023/05/24 03:19:25;;;;;;;58.10;2.40;;;;;;;;;;5059598;28;20980;-69
2023/05/24 03:21:52;;;;;;;57.60;2.73;;;;;;;;;;5070837;28;20474;-69
2023/05/24 03:24:19;;;;;;;57.57;2.50;;;;;;;;;;5065561;28;20476;-69
2023/05/24 03:26:46;;;;;;;57.27;2.50;;;;;;;;;;5070758;28;20538;-69
2023/05/24 03:29:15;;;;;;;57.20;2.40;;;;;;;;;;5066287;28;21004;-69
2023/05/24 03:31:42;;;;;;;57.37;2.50;;;;;;;;;;5061098;28;20536;-69
2023/05/24 03:34:09;;;;;;;57.90;3.07;;;;;;;;;;5068424;28;20475;-69
2023/05/24 03:36:36;;;;;;;57.77;2.50;;;;;;;;;;5072820;28;20958;-69
2023/05/24 03:39:03;;;;;;;57.40;2.50;;;;;;;;;;5067521;28;20538;-69
2023/05/24 03:41:30;;;;;;;57.23;2.17;;;;;;;;;;5073902;28;20466;-69
2023/05/24 03:43:57;;;;;;;57.60;2.20;;;;;;;;;;5071553;28;20474;-69
2023/05/24 03:46:26;;;;;;;57.37;2.50;;;;;;;;;;5072574;28;20460;-69
2023/05/24 03:48:53;;;;;;;57.57;2.60;;;;;;;;;;5065764;28;20491;-69
2023/05/24 03:51:22;;;;;;;57.30;2.27;;;;;;;;;;5070244;28;20478;-69
2023/05/24 03:53:49;;;;;;;57.50;2.50;;;;;;;;;;5073852;28;20455;-69
2023/05/24 03:56:16;;;;;;;57.33;2.30;;;;;;;;;;5070084;28;20454;-69
2023/05/24 03:58:43;;;;;;;57.27;2.50;;;;;;;;;;5064805;28;20462;-69
2023/05/24 04:01:10;;;;;;;57.50;2.10;;;;;;;;;;5060654;28;21016;-69
2023/05/24 04:03:39;;;;;;;57.13;2.10;;;;;;;;;;5072640;28;20453;-68
2023/05/24 04:06:06;;;;;;;57.37;2.40;;;;;;;;;;5070430;28;21111;-69
2023/05/24 04:08:34;;;;;;;57.40;2.03;;;;;;;;;;5072739;28;20487;-68
2023/05/24 04:11:01;;;;;;;57.40;2.27;;;;;;;;;;5070904;28;20479;-69
2023/05/24 04:13:28;;;;;;;60.90;3.17;;;;;;;;;;5073278;28;20454;-69
2023/05/24 04:15:55;;;;;;;57.43;2.57;;;;;;;;;;5066205;28;20495;-69
2023/05/24 04:18:22;;;;;;;57.27;2.20;;;;;;;;;;5065064;28;20470;-69
2023/05/24 04:20:51;;;;;;;57.27;2.20;;;;;;;;;;5065868;28;20924;-69
2023/05/24 04:23:18;;;;;;;57.60;2.50;;;;;;;;;;5068607;28;20846;-69
2023/05/24 04:25:45;;;;;;;57.40;2.50;;;;;;;;;;5073261;28;20447;-69
2023/05/24 04:28:14;;;;;;;57.27;2.30;;;;;;;;;;5068004;28;21011;-69
2023/05/24 04:30:41;;;;;;;57.40;2.60;;;;;;;;;;5069018;28;20814;-69
2023/05/24 04:33:08;;;;;;;57.40;2.40;;;;;;;;;;5069863;28;20924;-69
2023/05/24 04:35:35;;;;;;;57.13;2.20;;;;;;;;;;5072920;28;20914;-69
2023/05/24 04:38:04;;;;;;;57.60;2.50;;;;;;;;;;5066192;28;20467;-68
2023/05/24 04:40:31;;;;;;;57.43;2.50;;;;;;;;;;5071295;28;20447;-69
2023/05/24 04:42:58;;;;;;;57.40;2.47;;;;;;;;;;5064363;28;20460;-69
2023/05/24 04:45:25;;;;;;;57.33;2.30;;;;;;;;;;5067073;28;20914;-69
2023/05/24 04:47:52;;;;;;;57.30;2.20;;;;;;;;;;5062211;28;20465;-69
2023/05/24 04:50:19;;;;;;;57.70;3.27;;;;;;;;;;5068567;28;20454;-69
2023/05/24 04:52:46;;;;;;;57.57;2.60;;;;;;;;;;5068739;28;20479;-69
2023/05/24 04:55:15;;;;;;;57.50;2.50;;;;;;;;;;5065256;28;20542;-69
2023/05/24 04:57:42;;;;;;;57.40;2.67;;;;;;;;;;5064547;28;20538;-69
2023/05/24 05:00:09;;;;;;;57.40;2.73;;;;;;;;;;5065360;28;20450;-69
2023/05/24 05:02:36;;;;;;;57.30;2.60;;;;;;;;;;5063658;28;20478;-69
2023/05/24 05:05:03;;;;;;;57.20;2.30;;;;;;;;;;5072134;28;20447;-69
2023/05/24 05:07:31;;;;;;;57.40;2.53;;;;;;;;;;5062961;28;20468;-69
2023/05/24 05:09:58;;;;;;;62.40;4.30;;;;;;;;;;5066470;28;20509;-69
2023/05/24 05:12:26;;;;;;;57.90;2.87;;;;;;;;;;5070029;28;20473;-69
2023/05/24 05:14:54;;;;;;;58.00;2.80;;;;;;;;;;5056471;28;20542;-69
2023/05/24 05:17:21;;;;;;;57.17;2.70;;;;;;;;;;5063412;28;20460;-69
2023/05/24 05:19:48;;;;;;;59.70;2.87;;;;;;;;;;5042174;28;20460;-69
2023/05/24 05:22:15;;;;;;;57.17;2.40;;;;;;;;;;5068280;28;20851;-69
2023/05/24 05:24:42;;;;;;;57.40;2.60;;;;;;;;;;5051764;28;20460;-69
2023/05/24 05:27:10;;;;;;;57.13;2.33;;;;;;;;;;5051771;28;20456;-69
2023/05/24 05:29:38;;;;;;;57.20;2.47;;;;;;;;;;5051367;28;20519;-69
2023/05/24 05:32:05;;;;;;;56.97;2.10;;;;;;;;;;5051963;28;20882;-68
2023/05/24 05:34:32;;;;;;;57.13;2.30;;;;;;;;;;5052181;28;20453;-69
2023/05/24 05:37:00;;;;;;;57.10;2.27;;;;;;;;;;5052011;28;20480;-69
2023/05/24 05:39:27;;;;;;;57.27;2.67;;;;;;;;;;5051115;28;20456;-69
2023/05/24 05:41:54;;;;;;;57.20;2.00;;;;;;;;;;5051766;28;20479;-69
2023/05/24 05:44:21;;;;;;;57.17;2.20;;;;;;;;;;5052025;28;20448;-69
2023/05/24 05:46:49;;;;;;;57.07;2.47;;;;;;;;;;5051515;28;20444;-69
2023/05/24 05:49:17;;;;;;;56.77;2.40;;;;;;;;;;5050769;28;20488;-69
2023/05/24 05:51:44;;;;;;;57.00;2.00;;;;;;;;;;5051082;28;20507;-69
2023/05/24 05:54:15;;;;;;;56.97;2.13;;;;;;;;;;5050880;28;20457;-69
2023/05/24 05:56:44;;;;;;;57.13;2.37;;;;;;;;;;5051401;28;20463;-69
2023/05/24 05:59:11;;;;;;;57.07;2.20;;;;;;;;;;5050617;28;20949;-69
2023/05/24 06:01:38;;;;;;;57.07;2.30;;;;;;;;;;5051547;28;20478;-69
2023/05/24 06:04:07;;;;;;;57.20;2.80;;;;;;;;;;5051477;28;20443;-69
2023/05/24 06:06:34;;;;;;;57.87;3.10;;;;;;;;;;5051164;28;20474;-69
2023/05/24 06:09:01;;;;;;;56.97;2.40;;;;;;;;;;5050669;28;20480;-69
2023/05/24 06:11:28;;;;;;;57.30;2.63;;;;;;;;;;5051338;28;20559;-69
2023/05/24 06:13:55;;;;;;;57.03;2.20;;;;;;;;;;5051335;28;20451;-69
2023/05/24 06:16:22;;;;;;;57.13;2.50;;;;;;;;;;5051399;28;20810;-69
2023/05/24 06:18:49;;;;;;;57.03;2.03;;;;;;;;;;5050354;28;20553;-69
2023/05/24 06:21:18;;;;;;;57.07;2.30;;;;;;;;;;5050807;28;20973;-69
2023/05/24 06:23:45;;;;;;;56.93;2.23;;;;;;;;;;5051128;28;20460;-69
2023/05/24 06:26:12;;;;;;;57.10;2.00;;;;;;;;;;5051177;28;20456;-69
2023/05/24 06:28:39;;;;;;;56.87;2.30;;;;;;;;;;5052982;28;20984;-69
2023/05/24 06:31:06;;;;;;;57.13;2.70;;;;;;;;;;5070798;28;20469;-69
2023/05/24 06:33:33;;;;;;;57.70;2.67;;;;;;;;;;5070682;28;20452;-69
2023/05/24 06:36:00;;;;;;;57.33;2.90;;;;;;;;;;5071094;28;20447;-69
2023/05/24 06:38:31;;;;;;;56.97;2.07;;;;;;;;;;5062987;28;20460;-69
2023/05/24 06:40:58;;;;;;;57.07;2.50;;;;;;;;;;5059157;28;20478;-69
2023/05/24 06:43:25;;;;;;;56.93;2.10;;;;;;;;;;5065730;28;20451;-70
2023/05/24 06:45:53;;;;;;;57.03;2.30;;;;;;;;;;5070699;28;20447;-69
2023/05/24 06:48:20;;;;;;;57.07;2.10;;;;;;;;;;5070924;28;20443;-69
2023/05/24 06:50:47;;;;;;;57.97;2.53;;;;;;;;;;5070104;28;20848;-70
2023/05/24 06:53:14;;;;;;;58.53;3.10;;;;;;;;;;5070996;28;20443;-69
2023/05/24 06:55:42;;;;;;;57.00;2.10;;;;;;;;;;5070829;28;20891;-69
2023/05/24 06:58:13;;;;;;;57.60;2.60;;;;;;;;;;5070942;28;20444;-69
2023/05/24 07:00:40;;;;;;;56.80;2.10;;;;;;;;;;5069902;28;20499;-70
2023/05/24 07:03:07;;;;;;;57.07;2.10;;;;;;;;;;5070892;28;20451;-69
2023/05/24 07:05:35;;;;;;;57.10;2.20;;;;;;;;;;5070659;28;20831;-69
2023/05/24 07:08:02;;;;;;;56.77;2.20;;;;;;;;;;5073693;28;20497;-70
2023/05/24 07:10:30;;;;;;;57.80;2.60;;;;;;;;;;5073651;28;20490;-70
2023/05/24 07:12:58;;;;;;;57.60;3.13;;;;;;;;;;5074382;28;20458;-70
2023/05/24 07:15:25;;;;;;;56.97;2.23;;;;;;;;;;5074535;28;20478;-69
2023/05/24 07:17:52;;;;;;;57.10;2.27;;;;;;;;;;5074711;28;20799;-70
2023/05/24 07:20:19;;;;;;;57.10;2.33;;;;;;;;;;5073705;28;20447;-69
2023/05/24 07:22:46;;;;;;;56.87;2.10;;;;;;;;;;5073046;28;20470;-69
2023/05/24 07:25:14;;;;;;;56.87;2.30;;;;;;;;;;5072566;28;20837;-69
2023/05/24 07:27:41;;;;;;;57.07;2.20;;;;;;;;;;5073269;28;20453;-70
2023/05/24 07:30:11;;;;;;;56.97;2.30;;;;;;;;;;5071969;28;20980;-69
2023/05/24 07:32:38;;;;;;;57.40;2.30;;;;;;;;;;5073036;28;21108;-70
2023/05/24 07:35:05;;;;;;;57.67;2.60;;;;;;;;;;5073139;28;20447;-69
2023/05/24 07:37:32;;;;;;;57.00;2.73;;;;;;;;;;5073771;28;20794;-69
2023/05/24 07:40:00;;;;;;;56.87;2.23;;;;;;;;;;5073359;28;20447;-69
2023/05/24 07:42:27;;;;;;;57.60;2.60;;;;;;;;;;5073775;28;20489;-70
2023/05/24 07:44:54;;;;;;;56.93;2.27;;;;;;;;;;5074090;28;20462;-69
2023/05/24 07:47:22;;;;;;;56.87;2.40;;;;;;;;;;5073733;28;20940;-69
2023/05/24 07:49:49;;;;;;;56.97;2.20;;;;;;;;;;5073053;28;20478;-69
2023/05/24 07:52:16;;;;;;;57.20;2.20;;;;;;;;;;5073562;28;20471;-70
2023/05/24 07:54:44;;;;;;;56.93;2.10;;;;;;;;;;5073954;28;20544;-70
2023/05/24 07:57:11;;;;;;;56.67;2.10;;;;;;;;;;5073453;28;20451;-70
2023/05/24 07:59:38;;;;;;;57.33;2.70;;;;;;;;;;5072996;28;20447;-70
2023/05/24 08:02:10;;;;;;;56.77;2.10;;;;;;;;;;5073672;28;20476;-70
2023/05/24 08:04:38;;;;;;;57.37;2.40;;;;;;;;;;5073462;28;20428;-69
2023/05/24 08:07:06;;;;;;;56.87;2.27;;;;;;;;;;5073443;28;20478;-70
2023/05/24 08:09:34;;;;;;;57.07;2.10;;;;;;;;;;5072363;28;20479;-70
2023/05/24 08:12:01;;;;;;;57.00;2.30;;;;;;;;;;5073444;28;20478;-70
2023/05/24 08:14:28;;;;;;;56.90;2.10;;;;;;;;;;5073670;28;20454;-70
2023/05/24 08:16:56;;;;;;;57.50;2.57;;;;;;;;;;5073444;28;20921;-70
2023/05/24 08:19:23;;;;;;;57.30;2.37;;;;;;;;;;5072457;28;20444;-70
2023/05/24 08:21:51;;;;;;;56.73;2.00;;;;;;;;;;5073373;28;20468;-70
2023/05/24 08:24:18;;;;;;;57.10;2.30;;;;;;;;;;5073139;28;21103;-70
2023/05/24 08:26:46;;;;;;;57.03;2.37;;;;;;;;;;5073087;28;20453;-69
2023/05/24 08:29:15;;;;;;;57.17;2.40;;;;;;;;;;5072414;28;20503;-70
2023/05/24 08:31:43;;;;;;;57.17;2.43;;;;;;;;;;5073224;28;20489;-70
2023/05/24 08:34:11;;;;;;;56.90;2.40;;;;;;;;;;5072980;28;20467;-70
2023/05/24 08:36:39;;;;;;;59.00;2.80;;;;;;;;;;5073036;28;20880;-70
2023/05/24 08:39:08;;;;;;;57.63;2.50;;;;;;;;;;5072333;28;20443;-69
2023/05/24 08:41:36;;;;;;;57.07;2.43;;;;;;;;;;5072849;28;20513;-70
2023/05/24 08:44:06;;;;;;;57.97;3.13;;;;;;;;;;5073075;28;20451;-70
2023/05/24 08:46:33;;;;;;;57.10;2.50;;;;;;;;;;5073204;28;20443;-70
2023/05/24 08:49:02;;;;;;;56.83;2.20;;;;;;;;;;5071835;28;20447;-70
2023/05/24 08:51:29;;;;;;;57.30;2.80;;;;;;;;;;5072630;28;20491;-69
2023/05/24 08:53:58;;;;;;;56.87;2.60;;;;;;;;;;5072811;28;20851;-70
2023/05/24 08:56:27;;;;;;;59.73;3.70;;;;;;;;;;5072436;28;20447;-70
2023/05/24 08:58:55;;;;;;;56.90;2.20;;;;;;;;;;5071792;28;20750;-70
2023/05/24 09:01:22;;;;;;;57.10;2.10;;;;;;;;;;5072270;28;20467;-70
2023/05/24 09:03:51;;;;;;;56.73;2.17;;;;;;;;;;5072337;28;20458;-70
2023/05/24 09:06:18;;;;;;;57.20;2.70;;;;;;;;;;5072354;28;21015;-70
2023/05/24 09:08:46;;;;;;;58.10;3.60;;;;;;;;;;5071568;28;20461;-70
2023/05/24 09:11:15;;;;;;;58.47;4.50;;;;;;;;;;5072195;28;20487;-70
2023/05/24 09:13:44;;;;;;;57.07;2.30;;;;;;;;;;5072291;28;20512;-70
2023/05/24 09:16:12;;;;;;;57.07;2.50;;;;;;;;;;5072134;28;20447;-70
2023/05/24 09:18:41;;;;;;;57.10;2.20;;;;;;;;;;5071101;28;20448;-70
2023/05/24 09:21:08;;;;;;;56.87;2.20;;;;;;;;;;5072219;28;20489;-70
2023/05/24 09:23:36;;;;;;;57.50;2.40;;;;;;;;;;5071861;28;20561;-70
2023/05/24 09:26:08;;;;;;;56.93;2.17;;;;;;;;;;5072017;28;20870;-70
2023/05/24 09:28:35;;;;;;;57.17;2.60;;;;;;;;;;5071004;28;20451;-70
2023/05/24 09:31:04;;;;;;;60.40;3.30;;;;;;;;;;5070882;28;20855;-70
2023/05/24 09:33:32;;;;;;;58.20;2.60;;;;;;;;;;5071999;28;20790;-70
2023/05/24 09:35:59;;;;;;;57.30;3.00;;;;;;;;;;5071704;28;20940;-70
2023/05/24 09:38:27;;;;;;;57.07;2.50;;;;;;;;;;5071834;28;20534;-70
2023/05/24 09:41:01;;;;;;;57.40;2.93;;;;;;;;;;5071017;28;20467;-70
2023/05/24 09:43:30;;;;;;;58.00;2.93;;;;;;;;;;5071766;28;20508;-70
2023/05/24 09:45:58;;;;;;;57.17;2.43;;;;;;;;;;5071533;28;20459;-70
2023/05/24 09:48:27;;;;;;;56.80;2.20;;;;;;;;;;5071655;28;20448;-70
2023/05/24 09:51:04;;;;;;;57.70;2.90;;;;;;;;;;5070785;28;20487;-70
2023/05/24 09:53:32;;;;;;;57.80;2.87;;;;;;;;;;5071435;28;20459;-70
2023/05/24 09:56:00;;;;;;;57.20;2.37;;;;;;;;;;5071568;28;20451;-70
2023/05/24 09:58:31;;;;;;;57.07;2.30;;;;;;;;;;5071470;28;20458;-70
2023/05/24 10:01:05;;;;;;;56.87;2.20;;;;;;;;;;5071059;28;20463;-70
2023/05/24 10:03:33;;;;;;;56.97;2.30;;;;;;;;;;5071292;28;20947;-70
2023/05/24 10:06:03;;;;;;;56.97;2.20;;;;;;;;;;5071560;28;20453;-70
2023/05/24 10:08:31;;;;;;;56.67;2.20;;;;;;;;;;5070715;28;20450;-70
2023/05/24 10:10:58;;;;;;;57.17;2.73;;;;;;;;;;5070991;28;20497;-70
2023/05/24 10:13:26;;;;;;;57.20;2.57;;;;;;;;;;5071432;28;20451;-70
2023/05/24 10:15:53;;;;;;;56.87;2.40;;;;;;;;;;5071354;28;20822;-70
2023/05/24 10:18:20;;;;;;;56.90;2.20;;;;;;;;;;5071278;28;20461;-70
2023/05/24 10:20:49;;;;;;;57.17;2.60;;;;;;;;;;5070728;28;20450;-70
2023/05/24 10:23:20;;;;;;;57.70;2.50;;;;;;;;;;5071208;28;20478;-70
2023/05/24 10:25:50;;;;;;;57.10;2.10;;;;;;;;;;5070994;28;20459;-70
2023/05/24 10:28:17;;;;;;;58.23;2.70;;;;;;;;;;5070876;28;20936;-70
2023/05/24 10:30:49;;;;;;;57.00;2.30;;;;;;;;;;5070425;28;20498;-70
2023/05/24 10:33:17;;;;;;;56.87;2.17;;;;;;;;;;5071012;28;20438;-70
2023/05/24 10:35:45;;;;;;;57.37;2.83;;;;;;;;;;5071231;28;20454;-70
2023/05/24 10:38:13;;;;;;;57.00;2.30;;;;;;;;;;5071223;28;20815;-70
2023/05/24 10:40:42;;;;;;;57.07;2.47;;;;;;;;;;5070984;28;20447;-70
2023/05/24 10:43:10;;;;;;;57.03;2.50;;;;;;;;;;5075320;28;20826;-70
2023/05/24 10:45:38;;;;;;;57.30;2.23;;;;;;;;;;5075085;28;20452;-70
2023/05/24 10:48:24;;;;;;;57.20;2.60;;;;;;;;;;5075019;28;20513;-70
2023/05/24 10:50:51;;;;;;;56.97;2.40;;;;;;;;;;5073986;28;20517;-70
2023/05/24 10:53:21;;;;;;;58.70;3.07;;;;;;;;;;5075078;28;20450;-70
2023/05/24 10:55:55;;;;;;;56.90;2.30;;;;;;;;;;5075329;28;20451;-70
2023/05/24 10:58:23;;;;;;;57.50;2.60;;;;;;;;;;5074529;28;20451;-71
2023/05/24 11:00:52;;;;;;;57.07;2.60;;;;;;;;;;5073975;28;20474;-69
2023/05/24 11:03:23;;;;;;;57.07;2.20;;;;;;;;;;5074775;28;20452;-69
2023/05/24 11:05:51;;;;;;;56.90;2.10;;;;;;;;;;5074920;28;20431;-69
2023/05/24 11:08:23;;;;;;;56.93;2.37;;;;;;;;;;5074543;28;20459;-68
2023/05/24 11:10:50;;;;;;;57.23;2.43;;;;;;;;;;5073913;28;20491;-68
2023/05/24 11:13:19;;;;;;;57.07;2.53;;;;;;;;;;5074698;28;20462;-70
2023/05/24 11:15:50;;;;;;;57.13;2.60;;;;;;;;;;5074659;28;20870;-70
2023/05/24 11:18:19;;;;;;;57.27;2.20;;;;;;;;;;5074187;28;20451;-70
2023/05/24 11:20:48;;;;;;;56.87;2.20;;;;;;;;;;5073692;28;20447;-70
2023/05/24 11:23:16;;;;;;;62.50;3.00;;;;;;;;;;5074042;28;20447;-70
2023/05/24 11:25:45;;;;;;;57.80;2.60;;;;;;;;;;5074515;28;20497;-70
2023/05/24 11:28:13;;;;;;;56.87;2.23;;;;;;;;;;5074311;28;20451;-70
2023/05/24 11:30:40;;;;;;;56.97;2.30;;;;;;;;;;5073450;28;20485;-71
2023/05/24 11:33:14;;;;;;;57.17;2.20;;;;;;;;;;5074154;28;20459;-71
2023/05/24 11:35:42;;;;;;;57.10;2.47;;;;;;;;;;5068939;28;20454;-71
2023/05/24 11:38:12;;;;;;;59.47;4.40;;;;;;;;;;5073672;28;20547;-71
2023/05/24 11:40:43;;;;;;;56.97;2.10;;;;;;;;;;5073380;28;20471;-71
2023/05/24 11:43:13;;;;;;;57.10;2.10;;;;;;;;;;5074058;28;20500;-71
2023/05/24 11:45:41;;;;;;;56.83;2.10;;;;;;;;;;5073930;28;20454;-70
2023/05/24 11:48:09;;;;;;;57.20;2.60;;;;;;;;;;5073608;28;21010;-71
2023/05/24 11:50:39;;;;;;;57.40;2.53;;;;;;;;;;5073090;28;20490;-69
2023/05/24 11:53:06;;;;;;;57.27;2.37;;;;;;;;;;5073193;28;20469;-70
2023/05/24 11:55:33;;;;;;;56.80;2.13;;;;;;;;;;5073947;28;20451;-71
2023/05/24 11:58:02;;;;;;;58.23;2.43;;;;;;;;;;5064839;28;20459;-71
2023/05/24 12:00:30;;;;;;;57.87;2.40;;;;;;;;;;5072804;28;20450;-71
2023/05/24 12:03:00;;;;;;;56.93;2.00;;;;;;;;;;5073191;28;20443;-71
2023/05/24 12:05:30;;;;;;;56.97;2.17;;;;;;;;;;5072427;28;21007;-69
2023/05/24 12:08:04;;;;;;;57.07;2.60;;;;;;;;;;5073712;28;20463;-69
2023/05/24 12:10:32;;;;;;;57.30;2.30;;;;;;;;;;5072489;28;20819;-69
2023/05/24 12:12:59;;;;;;;57.60;3.00;;;;;;;;;;5073347;28;20455;-71
2023/05/24 12:15:27;;;;;;;56.53;2.00;;;;;;;;;;5073452;28;20455;-68
2023/05/24 12:17:55;;;;;;;57.50;2.37;;;;;;;;;;5073476;28;20452;-68
2023/05/24 12:20:22;;;;;;;56.40;1.80;;;;;;;;;;5072770;28;20530;-68
2023/05/24 12:22:51;;;;;;;56.43;1.83;;;;;;;;;;5073297;28;20463;-68
2023/05/24 12:25:20;;;;;;;56.57;2.23;;;;;;;;;;5073018;28;20459;-69
2023/05/24 12:27:47;;;;;;;56.77;1.63;;;;;;;;;;5073368;28;20457;-69
2023/05/24 12:30:19;;;;;;;56.37;1.50;;;;;;;;;;5072575;28;20447;-68
2023/05/24 12:32:46;;;;;;;56.50;2.10;;;;;;;;;;5072949;28;20780;-69
2023/05/24 12:35:15;;;;;;;56.90;2.20;;;;;;;;;;5073234;28;20505;-69
2023/05/24 12:37:42;;;;;;;56.37;2.10;;;;;;;;;;5072846;28;20458;-69
2023/05/24 12:40:16;;;;;;;56.37;1.87;;;;;;;;;;5072388;28;20814;-69
2023/05/24 12:42:45;;;;;;;56.50;1.83;;;;;;;;;;5073201;28;20456;-69
2023/05/24 12:45:12;;;;;;;57.17;2.10;;;;;;;;;;5073013;28;20865;-69
2023/05/24 12:47:39;;;;;;;56.60;1.90;;;;;;;;;;5072697;28;20966;-71
2023/05/24 12:50:07;;;;;;;56.10;1.73;;;;;;;;;;5072019;28;20470;-71
2023/05/24 12:52:35;;;;;;;56.20;1.60;;;;;;;;;;5072451;28;20495;-71
2023/05/24 12:55:02;;;;;;;56.47;2.30;;;;;;;;;;5072552;28;20693;-71
2023/05/24 12:57:29;;;;;;;56.43;1.90;;;;;;;;;;5072575;28;20961;-71
2023/05/24 12:59:57;;;;;;;57.47;2.27;;;;;;;;;;5071830;28;20450;-69
2023/05/24 13:02:24;;;;;;;56.37;1.90;;;;;;;;;;5072332;28;21003;-69
2023/05/24 13:04:51;;;;;;;56.60;2.13;;;;;;;;;;5071357;28;20455;-69
2023/05/24 13:07:19;;;;;;;56.50;2.13;;;;;;;;;;5072519;28;20459;-69
2023/05/24 13:09:48;;;;;;;57.00;2.40;;;;;;;;;;5071400;28;20460;-69
2023/05/24 13:12:15;;;;;;;56.70;2.40;;;;;;;;;;5072392;28;20486;-69
2023/05/24 13:14:43;;;;;;;57.57;2.30;;;;;;;;;;5072538;28;20454;-69
2023/05/24 13:17:10;;;;;;;58.07;2.30;;;;;;;;;;5072122;28;20451;-69
2023/05/24 13:19:37;;;;;;;56.60;1.80;;;;;;;;;;5071310;28;20455;-71
2023/05/24 13:22:04;;;;;;;56.80;2.33;;;;;;;;;;5071989;28;20481;-69
2023/05/24 13:24:32;;;;;;;56.40;1.80;;;;;;;;;;5071741;28;20462;-69
2023/05/24 13:27:00;;;;;;;56.50;2.10;;;;;;;;;;5072049;28;20542;-69
2023/05/24 13:29:27;;;;;;;56.57;2.30;;;;;;;;;;5071270;28;20671;-69
2023/05/24 13:31:55;;;;;;;56.10;2.07;;;;;;;;;;5071735;28;20581;-69
2023/05/24 13:34:23;;;;;;;57.03;1.87;;;;;;;;;;5071647;28;20462;-69
2023/05/24 13:36:50;;;;;;;56.20;1.70;;;;;;;;;;5071860;28;20456;-69
2023/05/24 13:39:18;;;;;;;56.37;2.00;;;;;;;;;;5070983;28;20478;-69
2023/05/24 13:41:45;;;;;;;56.47;1.90;;;;;;;;;;5071561;28;20964;-69
2023/05/24 13:44:14;;;;;;;57.30;2.40;;;;;;;;;;5071654;28;20454;-69
2023/05/24 13:46:41;;;;;;;56.57;1.90;;;;;;;;;;5071562;28;20453;-69
2023/05/24 13:49:09;;;;;;;60.20;2.70;;;;;;;;;;5070592;28;20451;-69
2023/05/24 13:51:37;;;;;;;56.70;1.90;;;;;;;;;;5071527;28;20483;-69
2023/05/24 13:54:05;;;;;;;57.20;2.00;;;;;;;;;;5071616;28;20447;-69
2023/05/24 13:56:33;;;;;;;56.77;1.97;;;;;;;;;;5071498;28;20825;-71
2023/05/24 13:59:00;;;;;;;56.73;2.07;;;;;;;;;;5070538;28;21030;-72
2023/05/24 14:01:29;;;;;;;56.57;2.00;;;;;;;;;;5071522;28;20475;-71
2023/05/24 14:03:56;;;;;;;58.57;2.60;;;;;;;;;;5071553;28;20459;-72
2023/05/24 14:06:23;;;;;;;59.67;2.10;;;;;;;;;;5071250;28;20932;-71
2023/05/24 14:08:50;;;;;;;56.27;1.80;;;;;;;;;;5070724;28;20469;-71
2023/05/24 14:11:18;;;;;;;57.67;3.30;;;;;;;;;;5071384;28;20488;-71
2023/05/24 14:13:45;;;;;;;56.30;1.70;;;;;;;;;;5071226;28;20454;-71
2023/05/24 14:16:12;;;;;;;56.50;1.80;;;;;;;;;;5070983;28;20443;-72
2023/05/24 14:18:41;;;;;;;56.43;2.00;;;;;;;;;;5070580;28;20447;-72
2023/05/24 14:21:08;;;;;;;56.17;1.80;;;;;;;;;;5071047;28;20999;-72
2023/05/24 14:23:35;;;;;;;56.37;1.83;;;;;;;;;;5071125;28;20463;-69
2023/05/24 14:26:03;;;;;;;56.17;1.63;;;;;;;;;;5071308;28;20510;-69
2023/05/24 14:28:30;;;;;;;61.13;3.07;;;;;;;;;;5071029;28;20827;-69
2023/05/24 14:30:58;;;;;;;56.57;1.97;;;;;;;;;;5070538;28;20471;-70
2023/05/24 14:33:25;;;;;;;56.97;2.80;;;;;;;;;;5070993;28;20451;-69
2023/05/24 14:35:53;;;;;;;56.00;2.10;;;;;;;;;;5071048;28;20447;-70